Time;durP1;ratioP1;P1;durP2;ratioP2;P2;SDS_P1;SDS_P2;PMS_P1;PMS_P2;Temp;Humidity;BMP_temperature;BMP_pressure;BME280_temperature;BME280_humidity;BME280_pressure;Samples;Min_cycle;Max_cycle;Signal;HPM_P1;HPM_P2
2021/12/09 00:01:01;;;;;;;8.90;5.50;;;;;;;0.06;100.00;94810.16;5042038;28;20462;-77
2021/12/09 00:03:32;;;;;;;16.70;7.23;;;;;;;0.04;100.00;94805.13;5011205;28;20512;-77
2021/12/09 00:05:59;;;;;;;13.13;6.30;;;;;;;0.04;100.00;94804.31;5042430;28;20514;-77
2021/12/09 00:08:28;;;;;;;11.30;5.63;;;;;;;0.13;100.00;94800.91;5016333;28;20952;-76
2021/12/09 00:10:57;;;;;;;12.53;7.13;;;;;;;0.07;100.00;94802.28;5029161;28;20487;-76
2021/12/09 00:13:24;;;;;;;17.60;7.27;;;;;;;0.06;100.00;94820.47;5034609;28;20527;-76
2021/12/09 00:15:50;;;;;;;11.23;6.80;;;;;;;0.12;100.00;94827.72;5041424;28;20467;-76
2021/12/09 00:18:17;;;;;;;12.80;6.90;;;;;;;0.10;100.00;94832.19;5035563;28;20765;-76
2021/12/09 00:20:43;;;;;;;16.63;8.33;;;;;;;0.09;100.00;94831.38;5016415;28;20095;-76
2021/12/09 00:23:08;;;;;;;16.63;8.70;;;;;;;0.10;100.00;94830.44;5035527;28;20572;-76
2021/12/09 00:25:35;;;;;;;14.30;7.60;;;;;;;0.11;100.00;94828.69;5025612;28;20558;-76
2021/12/09 00:28:02;;;;;;;18.40;9.17;;;;;;;0.09;100.00;94831.38;5012793;28;20033;-75
2021/12/09 00:30:29;;;;;;;14.50;7.80;;;;;;;0.09;100.00;94828.78;5032100;28;20460;-75
2021/12/09 00:32:55;;;;;;;19.73;8.63;;;;;;;0.05;100.00;94827.41;5014868;28;20463;-76
2021/12/09 00:35:27;;;;;;;15.13;7.63;;;;;;;0.04;100.00;94822.41;5026872;28;20459;-75
2021/12/09 00:38:04;;;;;;;13.93;7.83;;;;;;;0.06;100.00;94808.38;5032672;28;20451;-76
2021/12/09 00:40:30;;;;;;;15.33;7.33;;;;;;;0.22;100.00;94792.38;5042862;28;20448;-78
2021/12/09 00:42:56;;;;;;;13.47;7.30;;;;;;;0.16;100.00;94790.31;5033700;28;20448;-76
2021/12/09 00:45:23;;;;;;;14.77;7.17;;;;;;;0.12;100.00;94794.13;5047825;28;20036;-76
2021/12/09 00:47:51;;;;;;;16.30;8.37;;;;;;;0.07;100.00;94815.19;5040747;28;20514;-76
2021/12/09 00:50:17;;;;;;;17.10;8.97;;;;;;;0.08;100.00;94827.16;5029283;28;20542;-76
2021/12/09 00:52:42;;;;;;;16.33;8.93;;;;;;;0.12;100.00;94833.69;5037229;28;20454;-76
2021/12/09 00:55:09;;;;;;;18.77;9.63;;;;;;;0.08;100.00;94827.16;5042905;28;20424;-76
2021/12/09 00:57:36;;;;;;;19.37;11.53;;;;;;;0.04;100.00;94836.13;5042126;28;20025;-77
2021/12/09 01:00:15;;;;;;;20.60;10.87;;;;;;;0.07;100.00;94835.03;5037299;28;20471;-76
2021/12/09 01:02:40;;;;;;;18.40;11.07;;;;;;;0.09;100.00;94846.88;5035277;28;20432;-77
2021/12/09 01:05:09;;;;;;;17.67;11.43;;;;;;;0.08;100.00;94858.19;5019927;28;20502;-76
2021/12/09 01:07:35;;;;;;;18.03;11.30;;;;;;;0.07;100.00;94861.72;5037040;28;20029;-76
2021/12/09 01:10:01;;;;;;;18.13;10.43;;;;;;;0.07;100.00;94863.47;5029834;28;20448;-77
2021/12/09 01:12:27;;;;;;;19.13;11.37;;;;;;;-0.05;100.00;94857.56;5037529;28;20029;-77
2021/12/09 01:14:53;;;;;;;18.20;11.20;;;;;;;-0.11;100.00;94840.00;5038483;28;20455;-77
2021/12/09 01:17:19;;;;;;;17.87;10.07;;;;;;;-0.07;100.00;94849.13;5024037;28;20501;-76
2021/12/09 01:19:45;;;;;;;18.47;10.77;;;;;;;-0.10;100.00;94839.03;5026010;28;20553;-77
2021/12/09 01:22:14;;;;;;;20.53;11.87;;;;;;;-0.15;100.00;94841.19;5024902;28;20457;-76
2021/12/09 01:24:40;;;;;;;20.83;11.20;;;;;;;-0.18;100.00;94839.69;5026471;28;20128;-77
2021/12/09 01:27:06;;;;;;;18.50;11.50;;;;;;;-0.22;100.00;94842.66;5029345;28;20476;-76
2021/12/09 01:29:39;;;;;;;17.73;10.43;;;;;;;-0.19;100.00;94838.06;5036958;28;20459;-76
2021/12/09 01:32:07;;;;;;;18.33;10.70;;;;;;;-0.21;100.00;94846.88;5023718;28;20463;-77
2021/12/09 01:34:36;;;;;;;19.13;11.50;;;;;;;-0.24;100.00;94856.50;5037845;28;20092;-76
2021/12/09 01:37:03;;;;;;;18.83;10.80;;;;;;;-0.25;100.00;94854.88;5039871;28;20479;-76
2021/12/09 01:39:30;;;;;;;18.53;10.10;;;;;;;-0.23;100.00;94854.75;5025480;28;20463;-76
2021/12/09 01:41:58;;;;;;;17.50;10.60;;;;;;;-0.28;100.00;94855.13;5026216;28;20445;-76
2021/12/09 01:44:24;;;;;;;17.17;10.67;;;;;;;-0.28;100.00;94862.88;5034505;28;20503;-76
2021/12/09 01:46:50;;;;;;;18.53;10.17;;;;;;;-0.26;100.00;94861.00;5019385;28;20483;-76
2021/12/09 01:49:18;;;;;;;15.63;9.73;;;;;;;-0.30;100.00;94849.28;5018118;28;20467;-76
2021/12/09 01:51:45;;;;;;;16.27;9.67;;;;;;;-0.32;100.00;94833.09;5014380;28;20539;-77
2021/12/09 01:54:12;;;;;;;17.70;10.27;;;;;;;-0.29;100.00;94840.59;5021846;28;20460;-76
2021/12/09 01:56:38;;;;;;;18.33;10.30;;;;;;;-0.27;100.00;94824.94;5029336;28;21058;-76
2021/12/09 01:59:05;;;;;;;15.00;8.60;;;;;;;-0.32;100.00;94840.03;5030109;28;20471;-76
2021/12/09 02:01:33;;;;;;;14.77;9.17;;;;;;;-0.30;100.00;94841.53;5019786;28;20061;-77
2021/12/09 02:04:00;;;;;;;16.53;9.00;;;;;;;-0.31;100.00;94849.41;5036913;28;20467;-76
2021/12/09 02:06:26;;;;;;;15.27;8.67;;;;;;;-0.32;100.00;94863.28;5019233;28;20494;-76
2021/12/09 02:08:54;;;;;;;16.57;9.70;;;;;;;-0.30;100.00;94867.38;4999575;28;20515;-76
2021/12/09 02:11:21;;;;;;;15.57;9.20;;;;;;;-0.29;100.00;94861.25;5023275;28;21016;-76
2021/12/09 02:13:50;;;;;;;15.20;9.07;;;;;;;-0.31;100.00;94865.72;5027858;28;20505;-76
2021/12/09 02:16:16;;;;;;;14.80;8.57;;;;;;;-0.28;100.00;94873.22;5023124;28;20483;-76
2021/12/09 02:18:43;;;;;;;13.33;8.13;;;;;;;-0.21;100.00;94883.03;5036228;28;20474;-76
2021/12/09 02:21:15;;;;;;;14.47;8.70;;;;;;;-0.17;100.00;94885.25;5039993;28;20540;-76
2021/12/09 02:23:45;;;;;;;17.40;8.77;;;;;;;-0.17;100.00;94890.41;5040950;28;20546;-76
2021/12/09 02:26:12;;;;;;;13.80;8.30;;;;;;;-0.19;100.00;94891.50;5021958;28;20447;-76
2021/12/09 02:28:38;;;;;;;17.13;9.83;;;;;;;-0.17;100.00;94879.25;5029448;28;20915;-76
2021/12/09 02:31:04;;;;;;;16.63;10.17;;;;;;;-0.20;100.00;94884.66;5036891;28;20463;-76
2021/12/09 02:33:30;;;;;;;18.20;10.57;;;;;;;-0.28;100.00;94883.53;5049377;28;20565;-77
2021/12/09 02:35:56;;;;;;;15.20;9.70;;;;;;;-0.26;100.00;94888.59;5025100;28;20398;-78
2021/12/09 02:38:22;;;;;;;20.57;11.80;;;;;;;-0.30;100.00;94900.94;5039256;28;20455;-77
2021/12/09 02:40:49;;;;;;;18.67;11.20;;;;;;;-0.28;100.00;94891.28;5047473;28;20731;-77
2021/12/09 02:43:15;;;;;;;16.57;10.60;;;;;;;-0.29;100.00;94889.66;5030372;28;20494;-77
2021/12/09 02:45:48;;;;;;;19.57;10.77;;;;;;;-0.32;100.00;94887.34;5039216;28;20459;-76
2021/12/09 02:48:17;;;;;;;15.93;10.02;;;;;;;-0.32;100.00;94889.09;5027971;28;20548;-75
2021/12/09 02:50:43;;;;;;;18.80;10.67;;;;;;;-0.30;100.00;94890.63;5031144;28;20033;-76
2021/12/09 02:53:08;;;;;;;16.43;9.87;;;;;;;-0.31;100.00;94888.97;5026304;28;20478;-75
2021/12/09 02:55:34;;;;;;;15.93;10.00;;;;;;;-0.26;100.00;94902.34;5026426;28;20049;-75
2021/12/09 02:58:03;;;;;;;17.53;10.30;;;;;;;-0.29;100.00;94904.34;5049390;28;20124;-76
2021/12/09 03:00:29;;;;;;;15.13;10.27;;;;;;;-0.29;100.00;94894.84;5041438;28;20064;-77
2021/12/09 03:02:57;;;;;;;15.40;9.80;;;;;;;-0.27;100.00;94895.53;5025183;28;20451;-78
2021/12/09 03:05:23;;;;;;;15.23;8.97;;;;;;;-0.25;100.00;94896.22;5044804;28;20820;-76
2021/12/09 03:07:49;;;;;;;14.97;9.27;;;;;;;-0.29;100.00;94881.91;5026258;28;20476;-76
2021/12/09 03:10:24;;;;;;;17.50;9.47;;;;;;;-0.34;100.00;94875.47;5027854;28;20463;-76
2021/12/09 03:12:55;;;;;;;15.67;9.50;;;;;;;-0.32;100.00;94876.19;5041275;28;20033;-76
2021/12/09 03:15:23;;;;;;;14.73;8.90;;;;;;;-0.32;100.00;94871.84;5005585;28;20486;-75
2021/12/09 03:17:49;;;;;;;15.70;9.10;;;;;;;-0.32;100.00;94881.34;5029484;28;21018;-75
2021/12/09 03:20:17;;;;;;;13.93;8.43;;;;;;;-0.29;100.00;94881.09;5041194;28;20564;-75
2021/12/09 03:22:44;;;;;;;12.23;8.07;;;;;;;-0.29;100.00;94899.19;5032880;28;21026;-76
2021/12/09 03:25:13;;;;;;;12.57;7.60;;;;;;;-0.29;100.00;94902.59;5011628;28;20472;-76
2021/12/09 03:27:39;;;;;;;12.97;7.90;;;;;;;-0.30;100.00;94900.13;5021834;28;20448;-75
2021/12/09 03:30:09;;;;;;;12.63;7.67;;;;;;;-0.34;100.00;94909.88;5022248;28;20478;-76
2021/12/09 03:32:35;;;;;;;13.83;8.10;;;;;;;-0.33;100.00;94906.38;5043346;28;20452;-75
2021/12/09 03:35:02;;;;;;;13.13;8.20;;;;;;;-0.25;100.00;94897.97;5035011;28;20466;-75
2021/12/09 03:37:28;;;;;;;12.87;7.93;;;;;;;-0.28;100.00;94887.91;5015461;28;20476;-75
2021/12/09 03:39:55;;;;;;;13.27;8.50;;;;;;;-0.28;100.00;94900.81;5025294;28;20471;-76
2021/12/09 03:42:23;;;;;;;14.20;8.30;;;;;;;-0.36;100.00;94916.13;5045266;28;20556;-75
2021/12/09 03:44:50;;;;;;;13.17;8.37;;;;;;;-0.36;100.00;94916.94;5022939;28;20534;-76
2021/12/09 03:47:20;;;;;;;15.10;9.43;;;;;;;-0.31;100.00;94909.63;5043156;28;20471;-76
2021/12/09 03:49:46;;;;;;;13.37;8.00;;;;;;;-0.34;100.00;94904.72;5030624;28;20503;-75
2021/12/09 03:52:13;;;;;;;13.37;8.80;;;;;;;-0.37;100.00;94905.00;5035373;28;20480;-76
2021/12/09 03:54:40;;;;;;;15.23;8.77;;;;;;;-0.33;100.00;94898.63;5029748;28;20037;-75
2021/12/09 03:57:07;;;;;;;13.43;8.13;;;;;;;-0.30;100.00;94895.78;5043292;28;20459;-75
2021/12/09 03:59:33;;;;;;;15.83;9.17;;;;;;;-0.31;100.00;94888.16;5057419;28;20474;-76
2021/12/09 04:02:00;;;;;;;12.87;8.10;;;;;;;-0.32;100.00;94887.34;5051463;28;20452;-76
2021/12/09 04:04:26;;;;;;;13.10;8.73;;;;;;;-0.32;100.00;94907.19;5040927;28;20464;-75
2021/12/09 04:06:52;;;;;;;14.07;8.37;;;;;;;-0.30;100.00;94908.69;5039444;28;20602;-75
2021/12/09 04:09:20;;;;;;;13.37;8.03;;;;;;;-0.27;100.00;94915.34;5039713;28;20032;-75
2021/12/09 04:11:47;;;;;;;14.33;8.70;;;;;;;-0.28;100.00;94932.63;5032862;28;20456;-76
2021/12/09 04:14:13;;;;;;;14.20;8.67;;;;;;;-0.27;100.00;94931.69;5026532;28;20464;-75
2021/12/09 04:16:39;;;;;;;15.70;8.40;;;;;;;-0.29;100.00;94933.59;5037907;28;20627;-76
2021/12/09 04:19:07;;;;;;;18.13;10.60;;;;;;;-0.25;100.00;94929.78;5046238;28;20021;-76
2021/12/09 04:21:33;;;;;;;18.60;10.67;;;;;;;-0.29;100.00;94930.19;5033938;28;20490;-76
2021/12/09 04:23:59;;;;;;;17.80;10.53;;;;;;;-0.22;100.00;94935.66;5017823;28;20975;-75
2021/12/09 04:26:26;;;;;;;22.30;12.07;;;;;;;-0.28;100.00;94932.63;5029253;28;20468;-75
2021/12/09 04:28:52;;;;;;;21.77;12.67;;;;;;;-0.30;100.00;94925.97;5039080;28;20439;-76
2021/12/09 04:31:17;;;;;;;18.43;11.33;;;;;;;-0.27;100.00;94939.47;5040095;28;20467;-76
2021/12/09 04:33:44;;;;;;;22.03;12.57;;;;;;;-0.25;100.00;94940.13;5024188;28;20446;-76
2021/12/09 04:36:10;;;;;;;22.07;11.90;;;;;;;-0.27;100.00;94936.88;5025015;28;20071;-76
2021/12/09 04:38:36;;;;;;;20.10;11.53;;;;;;;-0.21;100.00;94934.72;5013817;28;20460;-75
2021/12/09 04:41:03;;;;;;;21.17;11.50;;;;;;;-0.22;100.00;94928.72;5044950;28;20463;-76
2021/12/09 04:43:29;;;;;;;20.07;11.57;;;;;;;-0.20;100.00;94946.69;5032686;28;20588;-75
2021/12/09 04:45:59;;;;;;;27.03;14.87;;;;;;;-0.16;100.00;94953.25;5038360;28;20471;-75
2021/12/09 04:48:25;;;;;;;20.63;12.80;;;;;;;-0.14;100.00;94956.53;5036811;28;20017;-76
2021/12/09 04:50:51;;;;;;;23.57;12.63;;;;;;;-0.10;100.00;94957.91;5051623;28;21000;-76
2021/12/09 04:53:17;;;;;;;20.80;12.07;;;;;;;-0.09;100.00;94975.88;5034071;28;20447;-76
2021/12/09 04:55:42;;;;;;;23.33;13.27;;;;;;;-0.14;100.00;94979.78;5031971;28;20033;-76
2021/12/09 04:58:08;;;;;;;20.60;12.47;;;;;;;-0.18;100.00;94976.63;5028009;28;20147;-76
2021/12/09 05:00:38;;;;;;;22.33;13.10;;;;;;;-0.19;100.00;94980.16;5032930;28;20029;-76
2021/12/09 05:03:13;;;;;;;25.23;14.43;;;;;;;-0.18;100.00;94971.44;5031627;28;20033;-76
2021/12/09 05:05:43;;;;;;;20.50;12.23;;;;;;;-0.19;100.00;94976.75;5029717;28;20574;-76
2021/12/09 05:08:13;;;;;;;22.67;12.23;;;;;;;-0.15;100.00;94988.47;5012781;28;20491;-76
2021/12/09 05:13:17;;;;;;;22.07;11.70;;;;;;;-0.18;100.00;94986.13;5028650;28;20841;-75
2021/12/09 05:15:46;;;;;;;21.23;13.27;;;;;;;-0.16;100.00;94986.84;5038457;28;20887;-76
2021/12/09 05:18:12;;;;;;;23.77;13.67;;;;;;;-0.15;100.00;94996.22;5015981;28;20984;-75
2021/12/09 05:20:39;;;;;;;26.43;14.20;;;;;;;-0.17;100.00;94998.91;5028865;28;20440;-76
2021/12/09 05:23:05;;;;;;;24.43;13.97;;;;;;;-0.13;100.00;94996.94;5035045;28;20491;-74
2021/12/09 05:25:31;;;;;;;27.33;14.30;;;;;;;-0.09;100.00;95006.06;5043312;28;20518;-75
2021/12/09 05:27:57;;;;;;;25.30;14.43;;;;;;;-0.07;100.00;95015.34;5026542;28;20483;-75
2021/12/09 05:30:25;;;;;;;24.83;13.30;;;;;;;-0.09;100.00;95008.66;5022355;28;20480;-75
2021/12/09 05:32:52;;;;;;;24.63;13.40;;;;;;;-0.09;100.00;95006.06;5034658;28;20083;-75
2021/12/09 05:35:18;;;;;;;26.77;14.03;;;;;;;-0.08;100.00;95005.13;5035185;28;20436;-75
2021/12/09 05:37:48;;;;;;;24.90;13.00;;;;;;;-0.03;100.00;95001.22;5026040;28;20531;-75
2021/12/09 05:40:15;;;;;;;20.23;11.90;;;;;;;-0.07;100.00;95006.75;5032973;28;20570;-76
2021/12/09 05:42:42;;;;;;;25.37;13.13;;;;;;;-0.07;100.00;95007.59;5031650;28;20492;-75
2021/12/09 05:45:08;;;;;;;25.57;14.00;;;;;;;-0.08;100.00;95012.88;5026880;28;20911;-75
2021/12/09 05:47:34;;;;;;;29.33;15.30;;;;;;;-0.11;100.00;95015.69;5035416;28;20476;-75
2021/12/09 05:49:59;;;;;;;28.50;16.33;;;;;;;-0.12;100.00;95012.31;5039828;28;20456;-75
2021/12/09 05:52:25;;;;;;;29.20;15.97;;;;;;;-0.08;100.00;95015.47;5038998;28;20677;-76
2021/12/09 05:54:52;;;;;;;31.20;16.33;;;;;;;-0.08;100.00;95024.03;5020092;28;20017;-75
2021/12/09 05:57:18;;;;;;;32.67;17.50;;;;;;;-0.09;100.00;95037.91;5029445;28;20040;-75
2021/12/09 05:59:44;;;;;;;32.07;15.30;;;;;;;-0.06;100.00;95045.41;5011769;28;21002;-75
2021/12/09 06:02:15;;;;;;;30.03;16.30;;;;;;;-0.02;100.00;95038.22;5005381;28;20112;-76
2021/12/09 06:04:41;;;;;;;27.90;14.27;;;;;;;-0.05;100.00;95041.88;5027672;28;20064;-75
2021/12/09 06:07:07;;;;;;;28.23;14.50;;;;;;;-0.09;100.00;95039.66;5039875;28;20479;-76
2021/12/09 06:09:33;;;;;;;28.83;15.87;;;;;;;-0.04;100.00;95037.50;5015430;28;20602;-75
2021/12/09 06:11:59;;;;;;;25.93;14.17;;;;;;;-0.04;100.00;95040.09;5046939;28;20463;-75
2021/12/09 06:14:25;;;;;;;25.40;14.07;;;;;;;0.07;100.00;95034.06;5018922;28;20028;-76
2021/12/09 06:16:51;;;;;;;22.00;12.97;;;;;;;0.05;100.00;95039.38;5040737;28;20464;-76
2021/12/09 06:19:17;;;;;;;24.03;14.07;;;;;;;0.08;100.00;95033.94;5017358;28;20590;-76
2021/12/09 06:21:43;;;;;;;28.13;14.57;;;;;;;0.08;100.00;95033.13;5012573;28;20025;-76
2021/12/09 06:24:08;;;;;;;30.07;15.43;;;;;;;0.17;100.00;95032.38;5028280;28;20390;-76
2021/12/09 06:26:35;;;;;;;30.57;14.93;;;;;;;0.14;100.00;95041.22;5042492;28;20368;-76
2021/12/09 06:29:02;;;;;;;32.07;17.23;;;;;;;0.12;100.00;95040.50;5033325;28;20038;-76
2021/12/09 06:31:28;;;;;;;32.90;15.80;;;;;;;0.06;100.00;95041.00;5050701;28;21036;-76
2021/12/09 06:33:54;;;;;;;28.73;14.53;;;;;;;0.17;100.00;95040.97;5053093;28;20441;-76
2021/12/09 06:36:20;;;;;;;29.07;16.23;;;;;;;0.15;100.00;95053.19;5044906;28;20528;-76
2021/12/09 06:38:46;;;;;;;28.50;15.47;;;;;;;0.13;100.00;95056.81;5034143;28;20649;-76
2021/12/09 06:41:12;;;;;;;28.50;15.07;;;;;;;0.12;100.00;95056.00;5052073;28;20437;-76
2021/12/09 06:43:40;;;;;;;26.93;14.90;;;;;;;0.10;100.00;95057.91;5044272;28;20398;-76
2021/12/09 06:46:08;;;;;;;29.20;15.03;;;;;;;0.12;100.00;95065.53;5028795;28;20033;-76
2021/12/09 06:48:35;;;;;;;27.43;14.53;;;;;;;0.11;100.00;95072.47;5038220;28;20972;-75
2021/12/09 06:51:05;;;;;;;23.37;14.03;;;;;;;0.15;100.00;95065.28;5033404;28;20522;-75
2021/12/09 06:53:31;;;;;;;26.40;15.03;;;;;;;0.15;100.00;95075.63;5025639;28;22135;-76
2021/12/09 06:55:57;;;;;;;23.17;15.37;;;;;;;0.17;100.00;95072.00;5033605;28;20551;-75
2021/12/09 06:58:24;;;;;;;23.10;13.93;;;;;;;0.15;100.00;95066.09;5031058;28;20498;-76
2021/12/09 07:00:50;;;;;;;30.37;15.33;;;;;;;0.18;100.00;95065.88;5031679;28;20461;-76
2021/12/09 07:03:21;;;;;;;26.47;14.13;;;;;;;0.17;100.00;95072.00;5039442;28;20476;-76
2021/12/09 07:05:51;;;;;;;30.20;14.40;;;;;;;0.20;100.00;95061.41;5043782;28;20482;-76
2021/12/09 07:08:18;;;;;;;29.33;14.63;;;;;;;0.17;100.00;95060.84;5036854;28;20487;-76
2021/12/09 07:10:45;;;;;;;25.07;14.20;;;;;;;0.21;100.00;95065.63;5022543;28;20456;-76
2021/12/09 07:13:12;;;;;;;29.60;15.67;;;;;;;0.14;100.00;95063.66;5044291;28;20490;-75
2021/12/09 07:15:38;;;;;;;24.50;14.47;;;;;;;0.12;100.00;95061.19;5034896;28;20502;-76
2021/12/09 07:18:04;;;;;;;22.20;13.27;;;;;;;0.14;100.00;95061.88;5026466;28;20506;-76
2021/12/09 07:20:31;;;;;;;30.00;14.57;;;;;;;0.17;100.00;95063.41;5035572;28;20491;-75
2021/12/09 07:22:57;;;;;;;24.70;13.30;;;;;;;0.20;100.00;95061.41;5043448;28;20064;-75
2021/12/09 07:25:25;;;;;;;21.33;13.37;;;;;;;0.17;100.00;95061.66;5025517;28;20464;-75
2021/12/09 07:27:52;;;;;;;26.23;14.83;;;;;;;0.18;100.00;95063.28;5023236;28;20462;-75
2021/12/09 07:30:20;;;;;;;24.33;13.67;;;;;;;0.20;100.00;95063.13;5043405;28;20443;-76
2021/12/09 07:32:46;;;;;;;25.23;14.30;;;;;;;0.21;100.00;95070.78;5025620;28;21338;-75
2021/12/09 07:35:14;;;;;;;22.93;12.63;;;;;;;0.20;100.00;95069.16;5032684;28;21353;-76
2021/12/09 07:37:41;;;;;;;26.53;14.10;;;;;;;0.25;100.00;95073.13;5039190;28;20533;-74
2021/12/09 07:40:10;;;;;;;21.10;13.10;;;;;;;0.29;100.00;95069.34;5017670;28;20468;-75
2021/12/09 07:42:36;;;;;;;23.87;13.10;;;;;;;0.37;100.00;95066.94;5042982;28;20454;-76
2021/12/09 07:45:05;;;;;;;21.50;12.67;;;;;;;0.30;100.00;95082.13;5017416;28;20460;-76
2021/12/09 07:47:31;;;;;;;26.50;12.80;;;;;;;0.30;100.00;95081.31;5023732;28;20471;-76
2021/12/09 07:49:57;;;;;;;24.60;13.73;;;;;;;0.39;100.00;95085.75;5013002;28;20568;-78
2021/12/09 07:52:23;;;;;;;26.03;14.03;;;;;;;0.33;100.00;95088.81;5037085;28;20506;-76
2021/12/09 07:54:49;;;;;;;28.23;13.73;;;;;;;0.36;100.00;95097.16;5023078;28;20028;-76
2021/12/09 07:57:15;;;;;;;25.90;12.33;;;;;;;0.34;100.00;95090.47;5026540;28;20083;-76
2021/12/09 07:59:40;;;;;;;28.17;14.87;;;;;;;0.37;100.00;95090.22;5040904;28;20579;-76
2021/12/09 08:02:07;;;;;;;27.63;15.27;;;;;;;0.37;100.00;95098.81;5025355;28;20463;-76
2021/12/09 08:04:34;;;;;;;27.27;15.63;;;;;;;0.38;100.00;95100.44;5040045;28;20022;-76
2021/12/09 08:07:01;;;;;;;25.57;13.37;;;;;;;0.40;100.00;95106.31;5020705;28;20485;-76
2021/12/09 08:09:27;;;;;;;23.43;14.03;;;;;;;0.46;100.00;95100.63;5021282;28;20523;-76
2021/12/09 08:11:53;;;;;;;23.00;14.07;;;;;;;0.45;100.00;95108.53;5021854;28;20467;-76
2021/12/09 08:14:19;;;;;;;23.63;12.63;;;;;;;0.46;100.00;95107.56;5030407;28;20651;-76
2021/12/09 08:16:55;;;;;;;23.00;13.77;;;;;;;0.50;100.00;95113.31;5038428;28;20025;-76
2021/12/09 08:19:21;;;;;;;21.27;11.93;;;;;;;0.49;100.00;95112.50;5024854;28;20499;-75
2021/12/09 08:21:46;;;;;;;23.03;11.37;;;;;;;0.47;100.00;95127.34;5062723;28;20017;-76
2021/12/09 08:24:12;;;;;;;22.97;12.17;;;;;;;0.56;100.00;95128.34;5033632;28;20032;-76
2021/12/09 08:26:38;;;;;;;19.90;11.67;;;;;;;0.51;100.00;95126.13;5043714;28;20029;-76
2021/12/09 08:29:05;;;;;;;17.33;10.20;;;;;;;0.52;100.00;95130.34;5030382;28;20034;-76
2021/12/09 08:31:33;;;;;;;28.87;13.27;;;;;;;0.61;100.00;95124.44;5029484;28;20026;-75
2021/12/09 08:34:00;;;;;;;27.47;13.33;;;;;;;0.61;100.00;95139.97;5021422;28;20829;-76
2021/12/09 08:36:26;;;;;;;27.43;15.80;;;;;;;0.65;100.00;95138.75;5021667;28;20152;-76
2021/12/09 08:38:52;;;;;;;29.67;14.03;;;;;;;0.64;100.00;95136.31;5028811;28;20567;-77
2021/12/09 08:41:19;;;;;;;30.33;14.73;;;;;;;0.61;100.00;95134.78;5031692;28;20021;-76
2021/12/09 08:43:46;;;;;;;32.50;15.10;;;;;;;0.66;100.00;95148.16;5038588;28;20463;-76
2021/12/09 08:46:14;;;;;;;29.93;17.67;;;;;;;0.80;100.00;95148.78;5021693;28;20458;-76
2021/12/09 08:48:41;;;;;;;21.27;12.13;;;;;;;0.88;100.00;95154.97;5031170;28;20041;-76
2021/12/09 08:51:07;;;;;;;19.43;11.03;;;;;;;0.85;100.00;95152.66;5016251;28;20029;-76
2021/12/09 08:53:33;;;;;;;21.87;11.03;;;;;;;0.83;100.00;95148.53;5040050;28;20550;-76
2021/12/09 08:55:59;;;;;;;19.93;11.37;;;;;;;0.89;100.00;95151.44;5014778;28;20072;-76
2021/12/09 08:58:27;;;;;;;22.37;10.23;;;;;;;0.94;100.00;95151.91;5035467;28;20040;-76
2021/12/09 09:00:56;;;;;;;22.80;10.40;;;;;;;0.87;100.00;95149.91;5042826;28;20021;-76
2021/12/09 09:03:24;;;;;;;17.93;10.13;;;;;;;0.95;100.00;95152.72;5029708;28;20060;-76
2021/12/09 09:05:51;;;;;;;26.00;11.37;;;;;;;0.91;100.00;95156.50;5029786;28;20511;-76
2021/12/09 09:08:16;;;;;;;21.27;11.80;;;;;;;0.97;100.00;95148.22;5038110;28;20456;-76
2021/12/09 09:10:45;;;;;;;19.87;10.03;;;;;;;0.98;100.00;95147.28;5038175;28;20071;-76
2021/12/09 09:13:13;;;;;;;17.27;9.60;;;;;;;1.10;100.00;95154.00;5023455;28;20032;-76
2021/12/09 09:15:39;;;;;;;18.23;10.27;;;;;;;1.20;100.00;95156.66;5039288;28;20096;-76
2021/12/09 09:18:06;;;;;;;18.40;9.93;;;;;;;1.21;100.00;95165.22;5014356;28;20446;-77
2021/12/09 09:20:37;;;;;;;16.73;9.43;;;;;;;1.14;100.00;95168.38;5020922;28;20032;-75
2021/12/09 09:23:03;;;;;;;15.63;9.13;;;;;;;1.13;100.00;95174.47;5049949;28;20037;-76
2021/12/09 09:25:29;;;;;;;18.73;11.27;;;;;;;1.08;100.00;95178.41;5037212;28;20029;-77
2021/12/09 09:27:58;;;;;;;25.80;10.40;;;;;;;1.13;100.00;95181.41;5018459;28;20116;-76
2021/12/09 09:30:27;;;;;;;18.80;9.50;;;;;;;1.05;100.00;95181.25;5014847;28;20044;-76
2021/12/09 09:32:53;;;;;;;22.90;12.80;;;;;;;1.18;100.00;95182.69;5042282;28;20100;-76
2021/12/09 09:35:19;;;;;;;23.87;12.83;;;;;;;1.21;100.00;95176.44;5047228;28;20009;-76
2021/12/09 09:37:49;;;;;;;24.90;12.90;;;;;;;1.12;100.00;95180.59;5030868;28;20061;-76
2021/12/09 09:40:23;;;;;;;33.60;15.47;;;;;;;1.14;100.00;95178.72;5038167;28;20021;-76
2021/12/09 09:42:58;;;;;;;38.83;17.27;;;;;;;1.21;100.00;95178.19;5028356;28;20029;-76
2021/12/09 09:45:25;;;;;;;35.07;16.23;;;;;;;1.14;100.00;95180.47;5025736;28;20024;-75
2021/12/09 09:47:52;;;;;;;17.53;9.07;;;;;;;1.11;100.00;95184.16;5026739;28;20116;-75
2021/12/09 09:50:18;;;;;;;18.17;9.43;;;;;;;1.07;100.00;95180.16;5026610;28;20068;-76
2021/12/09 09:52:44;;;;;;;16.83;9.33;;;;;;;1.24;100.00;95183.97;5036818;28;20021;-76
2021/12/09 09:55:14;;;;;;;18.83;8.83;;;;;;;1.21;100.00;95191.97;5041373;28;20025;-79
2021/12/09 09:57:40;;;;;;;20.73;11.33;;;;;;;1.17;100.00;95203.50;5013416;28;20044;-76
2021/12/09 10:00:10;;;;;;;22.87;12.60;;;;;;;1.21;100.00;95199.75;5023845;28;20657;-76
2021/12/09 10:02:38;;;;;;;17.23;9.30;;;;;;;1.17;100.00;95198.34;5016697;28;20120;-76
2021/12/09 10:05:07;;;;;;;19.17;10.93;;;;;;;1.24;100.00;95196.06;5025208;28;20033;-77
2021/12/09 10:07:34;;;;;;;17.87;9.90;;;;;;;1.15;100.00;95203.66;5048582;28;20370;-76
2021/12/09 10:10:01;;;;;;;21.60;10.43;;;;;;;1.14;100.00;95204.63;5021885;28;20375;-77
2021/12/09 10:12:26;;;;;;;19.37;8.17;;;;;;;1.13;100.00;95208.13;5027863;28;20033;-76
2021/12/09 10:14:54;;;;;;;18.83;8.60;;;;;;;1.18;100.00;95198.22;5024710;28;20084;-76
2021/12/09 10:17:26;;;;;;;17.90;7.67;;;;;;;1.18;100.00;95195.63;5036866;28;20033;-76
2021/12/09 10:19:58;;;;;;;20.67;10.80;;;;;;;1.28;100.00;95189.69;5030034;28;20021;-76
2021/12/09 10:22:30;;;;;;;16.13;8.43;;;;;;;1.29;100.00;95191.34;5034767;28;20044;-76
2021/12/09 10:24:58;;;;;;;13.47;7.10;;;;;;;1.33;100.00;95192.72;5045606;28;20052;-76
2021/12/09 10:27:32;;;;;;;13.20;7.90;;;;;;;1.38;100.00;95193.16;5042084;28;20025;-76
2021/12/09 10:30:20;;;;;;;14.17;7.93;;;;;;;1.51;100.00;95198.94;5023483;28;20037;-76
2021/12/09 10:32:46;;;;;;;14.50;8.33;;;;;;;1.44;100.00;95195.22;5028635;28;20030;-76
2021/12/09 10:35:18;;;;;;;10.43;7.13;;;;;;;1.46;100.00;95195.09;5022351;28;20567;-77
2021/12/09 10:37:51;;;;;;;17.93;8.23;;;;;;;1.45;100.00;95196.06;5037663;28;20036;-77
2021/12/09 10:40:20;;;;;;;14.23;7.25;;;;;;;1.39;100.00;95192.19;5026216;28;20030;-76
2021/12/09 10:42:52;;;;;;;14.20;7.20;;;;;;;1.37;100.00;95194.91;5041541;28;20098;-76
2021/12/09 10:45:30;;;;;;;12.77;6.73;;;;;;;1.40;100.00;95191.25;5027519;28;20083;-76
2021/12/09 10:48:05;;;;;;;12.33;7.23;;;;;;;1.43;100.00;95185.81;5032096;28;20465;-76
2021/12/09 10:55:52;;;;;;;18.20;8.07;;;;;;;1.61;100.00;95186.00;5047069;28;20111;-76
2021/12/09 10:58:39;;;;;;;31.73;16.80;;;;;;;1.56;100.00;95178.63;5036714;28;20074;-76
2021/12/09 11:01:14;;;;;;;21.23;12.50;;;;;;;1.70;100.00;95168.88;5052736;28;20033;-76
2021/12/09 11:03:41;;;;;;;21.70;12.13;;;;;;;1.77;100.00;95175.16;5044332;28;20040;-76
2021/12/09 11:06:09;;;;;;;20.93;12.10;;;;;;;1.75;100.00;95170.13;5032763;28;20062;-76
2021/12/09 11:08:45;;;;;;;20.60;12.03;;;;;;;1.81;100.00;95167.03;5037138;28;20029;-76
2021/12/09 11:11:28;;;;;;;21.97;10.03;;;;;;;1.80;100.00;95172.31;5029661;28;20025;-76
2021/12/09 11:13:56;;;;;;;11.30;6.73;;;;;;;1.67;100.00;95164.75;5030104;28;20040;-78
2021/12/09 11:16:32;;;;;;;13.43;7.83;;;;;;;1.53;100.00;95168.53;5021945;28;20105;-76
2021/12/09 11:19:05;;;;;;;21.67;8.67;;;;;;;1.74;100.00;95165.88;5046395;28;20040;-76
2021/12/09 11:21:35;;;;;;;13.60;9.13;;;;;;;1.87;100.00;95171.66;5033562;28;20108;-76
2021/12/09 11:24:06;;;;;;;13.07;8.53;;;;;;;1.84;100.00;95165.91;5017764;28;20033;-76
2021/12/09 11:29:17;;;;;;;13.63;8.70;;;;;;;1.61;100.00;95163.53;5044296;28;20063;-77